Time;durP1;ratioP1;P1;durP2;ratioP2;P2;SDS_P1;SDS_P2;PMS_P1;PMS_P2;Temp;Humidity;BMP_temperature;BMP_pressure;BME280_temperature;BME280_humidity;BME280_pressure;Samples;Min_cycle;Max_cycle;Signal;HPM_P1;HPM_P2
2023/08/14 00:00:45;;;;;;;13.20;3.40;;;;;;;17.58;62.19;101672.72;107450;1253;107463;-60
2023/08/14 00:03:32;;;;;;;15.70;4.00;;;;;;;17.56;62.38;101674.38;107530;1253;97703;-60
2023/08/14 00:06:01;;;;;;;15.70;3.20;;;;;;;17.51;62.49;101674.65;107600;1254;97769;-60
2023/08/14 00:08:29;;;;;;;11.00;3.20;;;;;;;17.45;62.80;101675.05;107503;1250;111983;-59
2023/08/14 00:10:58;;;;;;;8.90;2.90;;;;;;;17.42;62.92;101678.91;107479;1254;109907;-59
2023/08/14 00:13:27;;;;;;;8.20;3.20;;;;;;;17.40;62.78;101678.00;107564;1253;108573;-58
2023/08/14 00:15:55;;;;;;;12.90;3.10;;;;;;;17.39;62.83;101679.55;107503;1254;97833;-60
2023/08/14 00:18:24;;;;;;;8.40;3.20;;;;;;;17.37;63.01;101680.85;107500;1252;98353;-59
2023/08/14 00:20:52;;;;;;;12.20;3.80;;;;;;;17.35;62.97;101687.36;107520;1251;112121;-59
2023/08/14 00:23:20;;;;;;;6.50;3.20;;;;;;;17.34;62.87;101686.54;107535;1251;109921;-59
2023/08/14 00:25:49;;;;;;;7.30;3.10;;;;;;;17.32;62.97;101686.92;107486;1254;107419;-59
2023/08/14 00:28:17;;;;;;;8.40;3.50;;;;;;;17.32;63.23;101691.36;107464;1254;97808;-59
2023/08/14 00:30:45;;;;;;;7.20;3.40;;;;;;;17.31;63.24;101692.48;107465;1254;97879;-59
2023/08/14 00:33:14;;;;;;;11.60;3.40;;;;;;;17.28;63.37;101690.95;107531;1252;110653;-59
2023/08/14 00:35:42;;;;;;;5.50;3.10;;;;;;;17.27;63.46;101691.27;107553;1251;109967;-59
2023/08/14 00:38:10;;;;;;;9.40;3.90;;;;;;;17.26;63.64;101690.73;107478;1254;108769;-58
2023/08/14 00:40:39;;;;;;;9.10;3.50;;;;;;;17.23;63.60;101688.23;107543;1251;97928;-59
2023/08/14 00:43:07;;;;;;;11.30;3.20;;;;;;;17.21;63.96;101687.33;107570;1250;98452;-59
2023/08/14 00:45:35;;;;;;;9.20;3.20;;;;;;;17.17;63.77;101689.73;107557;1251;110291;-58
2023/08/14 00:48:14;;;;;;;8.20;2.90;;;;;;;17.14;63.70;101686.39;107486;1253;108186;-60
2023/08/14 00:50:44;;;;;;;8.60;3.40;;;;;;;17.12;63.84;101687.87;107550;1254;107217;-58
2023/08/14 00:53:14;;;;;;;16.10;4.00;;;;;;;17.09;64.07;101685.46;107523;1254;97853;-59
2023/08/14 00:55:43;;;;;;;9.20;3.30;;;;;;;17.06;64.09;101686.37;107517;1254;98350;-59
2023/08/14 00:58:12;;;;;;;6.00;2.80;;;;;;;17.03;64.01;101683.36;107535;1253;111781;-57
2023/08/14 01:00:43;;;;;;;5.60;2.90;;;;;;;17.01;64.03;101685.76;107510;1251;108164;-58
2023/08/14 01:03:12;;;;;;;7.20;3.70;;;;;;;16.97;64.35;101690.91;107485;1253;108538;-59
2023/08/14 01:05:41;;;;;;;7.50;3.20;;;;;;;16.90;64.06;101697.38;107494;1252;97815;-58
2023/08/14 01:08:09;;;;;;;6.10;3.30;;;;;;;16.86;64.30;101696.46;107545;1254;99511;-60
2023/08/14 01:10:58;;;;;;;9.90;3.20;;;;;;;16.84;64.71;101694.06;107515;1253;111744;-59
2023/08/14 01:13:48;;;;;;;8.50;2.80;;;;;;;16.81;64.72;101693.50;107548;1254;110302;-58
2023/08/14 01:16:23;;;;;;;8.30;3.20;;;;;;;16.79;64.62;101697.55;107513;1254;108763;-59
2023/08/14 01:18:55;;;;;;;14.40;3.70;;;;;;;16.76;64.66;101694.20;107456;1253;97867;-59
2023/08/14 01:21:32;;;;;;;6.20;3.60;;;;;;;16.74;64.83;101696.52;107515;1253;98442;-60
2023/08/14 01:24:24;;;;;;;8.00;2.60;;;;;;;16.74;65.04;101695.33;107573;1253;112372;-58
2023/08/14 01:26:52;;;;;;;9.20;2.80;;;;;;;16.72;65.20;101693.54;107488;1254;111040;-59
2023/08/14 01:29:21;;;;;;;5.60;3.00;;;;;;;16.71;65.33;101694.02;107438;1253;107423;-58
2023/08/14 01:31:49;;;;;;;7.30;3.20;;;;;;;16.69;65.18;101694.55;107500;1254;97829;-61
2023/08/14 01:34:18;;;;;;;7.80;3.00;;;;;;;16.67;65.12;101690.60;107544;1253;97746;-58
2023/08/14 01:37:12;;;;;;;8.10;3.30;;;;;;;16.64;65.06;101690.48;107521;1254;111202;-60
2023/08/14 01:39:49;;;;;;;11.50;3.10;;;;;;;16.61;65.21;101689.55;107578;1251;109662;-58
2023/08/14 01:42:25;;;;;;;7.10;3.00;;;;;;;16.57;65.38;101691.36;107452;1251;108197;-59
2023/08/14 01:45:01;;;;;;;8.90;3.10;;;;;;;16.51;65.41;101692.11;107499;1251;97920;-58
2023/08/14 01:47:33;;;;;;;8.30;2.90;;;;;;;16.46;65.41;101695.54;107527;1251;97720;-59
2023/08/14 01:50:02;;;;;;;7.30;3.00;;;;;;;16.43;65.54;101699.68;107475;1251;112210;-58
2023/08/14 01:52:32;;;;;;;12.30;3.50;;;;;;;16.39;65.44;101707.42;107539;1253;109854;-58
2023/08/14 01:55:00;;;;;;;8.10;3.00;;;;;;;16.37;65.71;101705.08;107438;1253;108256;-59
2023/08/14 01:57:30;;;;;;;7.60;2.90;;;;;;;16.36;66.07;101706.11;107536;1251;97708;-60
2023/08/14 01:59:59;;;;;;;12.70;3.70;;;;;;;16.37;66.05;101708.97;107560;1251;98408;-59
2023/08/14 02:02:28;;;;;;;6.20;3.30;;;;;;;16.37;66.05;101711.41;107506;1256;112017;-60
2023/08/14 02:04:56;;;;;;;7.40;3.10;;;;;;;16.37;65.93;101714.66;107555;1250;109769;-58
2023/08/14 02:07:24;;;;;;;7.60;3.40;;;;;;;16.38;65.83;101719.52;107565;1251;107288;-59
2023/08/14 02:09:56;;;;;;;13.80;2.90;;;;;;;16.37;65.82;101714.17;107456;1251;97829;-58
2023/08/14 02:12:25;;;;;;;10.30;3.00;;;;;;;16.33;65.93;101713.67;107540;1253;97774;-59
2023/08/14 02:14:54;;;;;;;9.80;3.40;;;;;;;16.32;65.98;101717.02;107490;1252;112242;-59
2023/08/14 02:17:22;;;;;;;10.80;3.60;;;;;;;16.32;66.24;101712.48;107543;1255;107959;-59
2023/08/14 02:19:51;;;;;;;7.20;3.00;;;;;;;16.31;66.38;101714.17;107543;1254;109103;-58
2023/08/14 02:22:20;;;;;;;9.90;3.20;;;;;;;16.25;66.26;101710.21;107567;1253;97828;-58
2023/08/14 02:24:49;;;;;;;12.10;3.20;;;;;;;16.22;66.24;101709.52;107540;1252;97930;-58
2023/08/14 02:27:17;;;;;;;11.90;3.30;;;;;;;16.21;66.25;101705.94;107593;1251;111425;-58
2023/08/14 02:29:46;;;;;;;7.50;3.40;;;;;;;16.20;66.29;101707.08;107438;1251;110106;-59
2023/08/14 02:32:15;;;;;;;9.50;3.20;;;;;;;16.18;66.15;101707.36;107557;1251;108242;-58
2023/08/14 02:34:52;;;;;;;5.70;3.20;;;;;;;16.14;66.16;101712.23;107580;1251;97839;-59
2023/08/14 02:37:21;;;;;;;6.70;3.70;;;;;;;16.08;66.28;101714.22;107529;1251;97805;-57
2023/08/14 02:39:50;;;;;;;8.20;3.60;;;;;;;16.03;66.24;101712.99;107517;1250;112364;-58
2023/08/14 02:42:20;;;;;;;6.20;3.50;;;;;;;15.98;66.43;101713.08;107567;1254;109586;-57
2023/08/14 02:44:50;;;;;;;6.80;3.60;;;;;;;15.93;66.89;101718.26;107508;1251;108791;-58
2023/08/14 02:47:19;;;;;;;11.00;3.30;;;;;;;15.87;67.12;101718.83;107468;1256;97940;-58
2023/08/14 02:49:48;;;;;;;9.10;3.00;;;;;;;15.82;67.13;101719.46;107544;1251;97827;-57
2023/08/14 02:52:16;;;;;;;8.60;3.20;;;;;;;15.77;67.05;101725.89;107515;1251;111097;-58
2023/08/14 02:54:45;;;;;;;8.40;3.40;;;;;;;15.73;67.26;101725.20;107591;1251;109247;-58
2023/08/14 02:57:13;;;;;;;9.60;3.50;;;;;;;15.69;67.62;101726.70;107514;1253;109353;-58
2023/08/14 02:59:42;;;;;;;7.70;3.20;;;;;;;15.66;67.64;101731.06;107534;1254;97832;-58
2023/08/14 03:02:11;;;;;;;8.20;2.70;;;;;;;15.64;67.59;101732.86;107572;1251;98492;-58
2023/08/14 03:04:39;;;;;;;8.10;2.80;;;;;;;15.63;67.57;101731.17;107502;1254;111891;-57
2023/08/14 03:07:07;;;;;;;13.60;5.70;;;;;;;15.60;67.59;101734.13;107507;1251;109158;-57
2023/08/14 03:09:35;;;;;;;7.80;3.50;;;;;;;15.58;67.73;101733.14;107539;1251;108081;-57
2023/08/14 03:12:04;;;;;;;9.20;3.90;;;;;;;15.55;67.81;101733.38;107493;1251;97831;-59
2023/08/14 03:14:33;;;;;;;4.50;3.10;;;;;;;15.53;67.92;101732.89;107591;1251;97675;-58
2023/08/14 03:17:01;;;;;;;8.80;3.80;;;;;;;15.50;68.24;101731.66;107495;1254;111142;-59
2023/08/14 03:19:29;;;;;;;7.00;3.40;;;;;;;15.45;68.31;101733.23;107675;1254;109851;-57
2023/08/14 03:21:58;;;;;;;8.10;3.50;;;;;;;15.42;68.36;101731.69;107499;1255;107736;-58
2023/08/14 03:24:26;;;;;;;14.70;3.80;;;;;;;15.42;68.33;101733.19;107510;1256;97832;-58
2023/08/14 03:26:55;;;;;;;9.90;3.30;;;;;;;15.39;68.56;101729.66;107588;1256;98298;-59
2023/08/14 03:29:24;;;;;;;12.50;3.30;;;;;;;15.39;68.76;101734.04;107592;1254;111236;-57
2023/08/14 03:31:53;;;;;;;7.20;3.30;;;;;;;15.37;68.79;101732.06;107486;1252;109153;-58
2023/08/14 03:34:21;;;;;;;9.60;3.70;;;;;;;15.37;68.71;101730.70;107454;1254;107200;-58
2023/08/14 03:36:50;;;;;;;6.80;3.20;;;;;;;15.37;68.85;101735.09;107500;1255;97912;-58
2023/08/14 03:39:19;;;;;;;8.40;3.40;;;;;;;15.38;68.80;101735.35;107472;1251;97825;-58
2023/08/14 03:41:48;;;;;;;11.00;3.30;;;;;;;15.38;68.84;101730.69;107458;1254;111914;-58
2023/08/14 03:44:16;;;;;;;15.40;4.50;;;;;;;15.38;69.02;101735.52;107522;1253;110874;-58
2023/08/14 03:46:45;;;;;;;8.30;3.30;;;;;;;15.39;68.98;101736.39;107641;1252;106921;-58
2023/08/14 03:49:15;;;;;;;7.80;3.40;;;;;;;15.39;69.00;101741.24;107515;1251;97835;-58
2023/08/14 03:51:44;;;;;;;7.20;3.00;;;;;;;15.41;68.94;101743.20;107618;1252;97819;-59
2023/08/14 03:54:13;;;;;;;9.30;3.70;;;;;;;15.45;68.88;101743.36;107515;1251;112087;-58
2023/08/14 03:56:42;;;;;;;6.30;2.90;;;;;;;15.49;68.95;101744.57;107466;1254;109707;-59
2023/08/14 03:59:12;;;;;;;5.40;2.80;;;;;;;15.53;68.88;101746.59;107475;1253;108163;-59
2023/08/14 04:01:42;;;;;;;10.50;3.10;;;;;;;15.55;68.91;101743.71;107467;1255;97931;-58
2023/08/14 04:04:11;;;;;;;13.30;3.40;;;;;;;15.58;68.80;101743.98;107528;1254;98901;-60
2023/08/14 04:06:40;;;;;;;9.60;4.10;;;;;;;15.60;68.89;101744.44;107467;1252;111431;-58
2023/08/14 04:09:09;;;;;;;8.10;3.50;;;;;;;15.63;68.89;101745.13;107533;1251;109182;-58
2023/08/14 04:11:37;;;;;;;8.30;4.20;;;;;;;15.65;69.07;101746.18;107420;1253;108311;-59
2023/08/14 04:14:06;;;;;;;6.70;3.40;;;;;;;15.68;69.01;101745.77;107469;1254;97810;-58
2023/08/14 04:16:43;;;;;;;6.70;3.60;;;;;;;15.70;69.08;101748.99;107484;1253;97827;-58
2023/08/14 04:19:15;;;;;;;38.50;5.30;;;;;;;15.75;69.01;101749.75;107550;1254;110904;-58
2023/08/14 04:21:43;;;;;;;9.20;3.90;;;;;;;15.79;69.03;101755.00;107511;1254;108943;-58
2023/08/14 04:24:12;;;;;;;9.30;4.00;;;;;;;15.85;69.03;101753.95;107516;1255;107341;-59
2023/08/14 04:26:41;;;;;;;11.00;4.00;;;;;;;15.91;68.97;101758.61;107489;1253;97883;-60
2023/08/14 04:29:10;;;;;;;10.00;3.20;;;;;;;15.98;68.98;101755.27;107312;1254;97931;-58
2023/08/14 04:31:40;;;;;;;11.20;4.20;;;;;;;16.04;68.86;101753.73;107528;1255;110675;-59
2023/08/14 04:34:10;;;;;;;10.90;4.80;;;;;;;16.10;68.78;101758.42;107541;1254;109684;-58
2023/08/14 04:36:41;;;;;;;12.10;4.60;;;;;;;16.17;68.69;101761.23;107553;1256;107733;-59
2023/08/14 04:39:09;;;;;;;13.50;3.70;;;;;;;16.24;68.66;101763.20;107566;1250;97931;-60
2023/08/14 04:41:38;;;;;;;17.20;4.80;;;;;;;16.33;68.54;101763.68;107640;1251;97709;-60
2023/08/14 04:44:06;;;;;;;9.60;4.70;;;;;;;16.42;68.45;101765.42;107522;1254;111461;-57
2023/08/14 04:46:36;;;;;;;15.00;4.60;;;;;;;16.51;68.33;101767.45;107564;1251;110072;-58
2023/08/14 04:49:08;;;;;;;10.90;5.20;;;;;;;16.60;67.96;101766.83;107482;1254;107927;-58
2023/08/14 04:51:37;;;;;;;17.90;5.80;;;;;;;16.68;67.90;101772.01;107484;1254;97870;-59
2023/08/14 04:54:06;;;;;;;23.80;5.70;;;;;;;16.77;67.81;101777.11;107604;1251;97812;-59
2023/08/14 04:56:34;;;;;;;20.00;5.60;;;;;;;16.86;67.57;101778.92;107528;1251;112240;-60
2023/08/14 04:59:04;;;;;;;15.10;5.60;;;;;;;16.92;67.03;101778.00;107569;1251;109835;-59
2023/08/14 05:01:32;;;;;;;26.50;11.00;;;;;;;16.93;66.74;101781.30;107498;1251;108572;-58
2023/08/14 05:04:01;;;;;;;13.40;6.20;;;;;;;16.94;66.46;101777.77;107522;1254;97726;-58
2023/08/14 05:06:29;;;;;;;33.70;8.10;;;;;;;17.00;66.61;101782.76;107568;1251;98949;-58
2023/08/14 05:08:58;;;;;;;21.60;6.20;;;;;;;17.06;66.32;101782.55;107480;1254;112411;-58
2023/08/14 05:11:31;;;;;;;15.00;6.50;;;;;;;17.13;66.25;101785.67;107563;1253;109993;-58
2023/08/14 05:14:00;;;;;;;23.50;6.20;;;;;;;17.12;66.01;101788.10;107543;1251;107761;-59
2023/08/14 05:16:28;;;;;;;16.10;5.80;;;;;;;17.13;65.81;101786.38;107535;1256;97807;-58
2023/08/14 05:18:58;;;;;;;11.50;5.90;;;;;;;17.18;65.90;101790.75;107607;1251;98450;-59
2023/08/14 05:21:27;;;;;;;26.90;6.60;;;;;;;17.19;66.03;101794.80;107578;1251;111416;-60
2023/08/14 05:23:55;;;;;;;12.20;5.10;;;;;;;17.19;65.75;101796.61;107485;1256;109589;-58
2023/08/14 05:26:23;;;;;;;12.70;5.50;;;;;;;17.23;65.96;101797.36;107480;1254;107499;-57
2023/08/14 05:28:51;;;;;;;12.40;5.40;;;;;;;17.29;65.74;101798.63;107472;1255;97835;-59
2023/08/14 05:31:20;;;;;;;10.00;4.80;;;;;;;17.34;65.57;101803.11;107523;1253;97939;-58
2023/08/14 05:33:48;;;;;;;18.50;5.10;;;;;;;17.43;65.48;101806.22;107604;1251;111257;-58
2023/08/14 05:36:17;;;;;;;15.10;4.60;;;;;;;17.52;65.08;101804.39;107536;1251;109766;-60
2023/08/14 05:38:45;;;;;;;12.30;4.70;;;;;;;17.61;64.60;101806.27;107516;1251;108230;-60
2023/08/14 05:41:13;;;;;;;11.50;5.20;;;;;;;17.69;64.26;101806.54;107516;1251;97829;-59
2023/08/14 05:43:42;;;;;;;12.40;5.10;;;;;;;17.77;63.98;101808.77;107512;1251;98501;-59
2023/08/14 05:46:10;;;;;;;19.20;4.80;;;;;;;17.85;63.65;101808.64;107566;1251;111445;-57
2023/08/14 05:48:39;;;;;;;12.20;5.30;;;;;;;17.93;63.10;101802.42;107543;1251;109030;-58
2023/08/14 05:51:08;;;;;;;12.50;4.70;;;;;;;18.00;63.03;101803.94;107551;1251;107797;-59
2023/08/14 05:53:36;;;;;;;9.90;5.20;;;;;;;18.07;62.89;101804.66;107555;1251;97953;-58
2023/08/14 05:56:04;;;;;;;11.80;4.70;;;;;;;18.14;62.55;101804.23;107586;1251;97742;-60
2023/08/14 05:58:33;;;;;;;14.40;5.10;;;;;;;18.24;62.41;101804.89;107560;1251;111257;-59
2023/08/14 06:01:01;;;;;;;17.30;5.80;;;;;;;18.32;62.13;101806.36;107558;1251;108948;-60
2023/08/14 06:03:29;;;;;;;14.00;4.80;;;;;;;18.41;61.90;101809.55;107556;1251;107759;-60
2023/08/14 06:06:11;;;;;;;17.60;5.20;;;;;;;18.50;61.64;101807.23;107523;1251;97821;-59
2023/08/14 06:08:40;;;;;;;16.80;5.00;;;;;;;18.57;61.36;101805.02;107560;1251;97834;-58
2023/08/14 06:11:09;;;;;;;11.50;4.50;;;;;;;18.65;61.13;101805.96;107552;1251;111780;-59
2023/08/14 06:13:37;;;;;;;20.80;4.50;;;;;;;18.75;60.66;101806.75;107614;1251;109336;-60
2023/08/14 06:16:06;;;;;;;10.30;4.00;;;;;;;18.84;60.54;101807.22;107524;1251;108095;-59
2023/08/14 06:18:34;;;;;;;12.70;4.10;;;;;;;18.91;59.43;101813.96;107493;1253;97919;-59
2023/08/14 06:21:03;;;;;;;7.30;3.40;;;;;;;19.01;58.49;101811.45;107560;1253;98399;-60
2023/08/14 06:23:31;;;;;;;7.50;4.50;;;;;;;19.13;58.48;101818.38;107568;1251;111097;-60
2023/08/14 06:26:00;;;;;;;13.70;4.00;;;;;;;19.24;58.34;101815.69;107504;1254;108858;-59
2023/08/14 06:28:28;;;;;;;14.30;3.70;;;;;;;19.35;58.42;101816.13;107498;1251;108264;-58
2023/08/14 06:31:03;;;;;;;22.30;5.50;;;;;;;19.44;57.90;101812.45;107569;1251;97825;-60
2023/08/14 06:33:32;;;;;;;17.00;3.90;;;;;;;19.54;57.93;101814.36;107502;1251;98376;-58
2023/08/14 06:36:00;;;;;;;14.70;4.20;;;;;;;19.64;57.74;101813.81;107581;1251;111315;-59
2023/08/14 06:38:28;;;;;;;12.10;4.60;;;;;;;19.74;57.57;101813.88;107514;1251;109874;-59
2023/08/14 06:40:57;;;;;;;21.00;4.60;;;;;;;19.83;57.44;101810.32;107469;1251;108151;-58
2023/08/14 06:43:25;;;;;;;13.30;4.00;;;;;;;19.91;56.92;101815.26;107519;1251;97902;-60
2023/08/14 06:45:53;;;;;;;18.40;3.80;;;;;;;20.01;56.67;101811.80;107543;1251;97698;-59
2023/08/14 06:48:21;;;;;;;12.20;3.70;;;;;;;20.12;56.36;101814.33;107541;1253;110617;-59
2023/08/14 06:50:52;;;;;;;13.90;3.90;;;;;;;20.25;55.95;101812.23;107569;1253;109804;-60
2023/08/14 06:53:20;;;;;;;11.10;3.50;;;;;;;20.38;55.79;101813.10;107713;1255;108692;-59
2023/08/14 06:55:48;;;;;;;13.40;5.10;;;;;;;20.47;55.45;101816.41;107533;1251;97913;-61
2023/08/14 06:58:17;;;;;;;17.00;5.70;;;;;;;20.54;54.88;101815.98;107624;1251;98353;-58
2023/08/14 07:00:48;;;;;;;6.40;3.30;;;;;;;20.67;54.32;101818.48;107602;1251;110856;-58
2023/08/14 07:03:16;;;;;;;8.60;3.60;;;;;;;20.79;54.41;101818.09;107503;1252;110097;-58
2023/08/14 07:05:45;;;;;;;13.30;3.70;;;;;;;20.89;53.73;101814.39;107566;1255;108769;-58
2023/08/14 07:08:13;;;;;;;12.10;3.20;;;;;;;21.00;53.59;101818.56;107486;1256;97930;-60
2023/08/14 07:10:42;;;;;;;9.80;3.40;;;;;;;21.09;53.28;101816.42;107570;1251;97892;-59
2023/08/14 07:13:11;;;;;;;19.90;3.80;;;;;;;21.18;53.02;101812.41;107479;1253;111752;-58
2023/08/14 07:15:39;;;;;;;13.70;4.60;;;;;;;21.31;52.97;101816.04;107534;1255;109243;-58
2023/08/14 07:18:09;;;;;;;10.50;3.50;;;;;;;21.43;53.04;101816.08;107517;1255;107109;-59
2023/08/14 07:20:37;;;;;;;14.20;3.80;;;;;;;21.51;52.91;101813.45;107614;1254;97847;-60
2023/08/14 07:23:06;;;;;;;6.90;3.40;;;;;;;21.60;52.59;101814.30;107524;1254;98143;-59
2023/08/14 07:25:34;;;;;;;13.50;3.60;;;;;;;21.71;52.17;101817.39;107624;1253;111343;-60
2023/08/14 07:28:03;;;;;;;8.90;3.60;;;;;;;21.84;52.13;101813.02;107527;1254;110136;-60
2023/08/14 07:30:32;;;;;;;11.20;3.40;;;;;;;21.98;51.82;101811.08;107562;1254;109327;-59
2023/08/14 07:33:01;;;;;;;18.20;4.30;;;;;;;22.11;51.96;101807.86;107560;1254;97844;-58
2023/08/14 07:35:29;;;;;;;17.30;3.80;;;;;;;22.20;51.93;101806.11;107588;1254;98360;-58
2023/08/14 07:37:58;;;;;;;10.20;3.20;;;;;;;22.30;51.87;101808.52;107524;1254;112179;-58
2023/08/14 07:40:26;;;;;;;7.30;3.80;;;;;;;22.40;51.49;101804.70;107548;1254;109723;-58
2023/08/14 07:42:55;;;;;;;9.00;2.90;;;;;;;22.50;51.18;101805.80;107538;1253;108610;-59
2023/08/14 07:45:23;;;;;;;9.90;2.90;;;;;;;22.61;50.09;101802.63;107523;1251;97828;-58
2023/08/14 07:47:51;;;;;;;11.50;3.80;;;;;;;22.74;49.70;101798.33;107507;1254;97895;-59
2023/08/14 07:50:20;;;;;;;9.90;3.00;;;;;;;22.87;49.27;101796.88;107524;1254;110926;-59
2023/08/14 07:52:49;;;;;;;11.30;3.30;;;;;;;23.00;49.06;101796.52;107552;1254;109394;-60
2023/08/14 07:55:17;;;;;;;12.10;3.90;;;;;;;23.13;49.10;101796.94;107476;1254;108419;-59
2023/08/14 07:57:46;;;;;;;12.30;3.50;;;;;;;23.24;48.53;101795.91;107538;1251;97843;-58
2023/08/14 08:00:15;;;;;;;17.50;3.60;;;;;;;23.36;47.71;101794.21;107573;1253;98177;-59
2023/08/14 08:02:44;;;;;;;6.80;3.20;;;;;;;23.49;46.92;101791.50;107548;1254;112202;-59
2023/08/14 08:05:13;;;;;;;15.80;3.60;;;;;;;23.61;47.10;101787.55;107544;1254;109735;-60
2023/08/14 08:07:41;;;;;;;15.90;2.90;;;;;;;23.74;46.70;101785.29;107566;1251;106795;-58
2023/08/14 08:10:10;;;;;;;12.40;3.30;;;;;;;23.92;46.42;101787.46;107507;1254;98294;-59
2023/08/14 08:12:38;;;;;;;17.00;3.30;;;;;;;24.05;45.93;101788.25;107519;1254;97710;-60
2023/08/14 08:15:07;;;;;;;10.30;3.10;;;;;;;24.22;45.87;101786.61;107569;1254;112024;-59
2023/08/14 08:17:35;;;;;;;17.50;3.30;;;;;;;24.41;45.97;101789.50;107531;1255;109701;-59
2023/08/14 08:20:05;;;;;;;12.80;3.50;;;;;;;24.56;45.66;101786.86;107537;1251;106704;-59
2023/08/14 08:22:34;;;;;;;20.80;3.10;;;;;;;24.74;45.46;101785.34;107492;1254;97937;-59
2023/08/14 08:25:03;;;;;;;7.90;2.90;;;;;;;24.90;44.92;101786.04;107444;1255;98427;-59
2023/08/14 08:27:31;;;;;;;10.00;3.20;;;;;;;25.07;44.36;101786.98;107451;1254;112184;-58
2023/08/14 08:30:00;;;;;;;13.40;2.70;;;;;;;25.24;42.81;101783.02;107435;1254;110271;-57
2023/08/14 08:32:28;;;;;;;6.40;2.40;;;;;;;25.42;41.96;101784.38;107473;1256;108920;-58
2023/08/14 08:34:58;;;;;;;8.80;2.40;;;;;;;25.66;40.17;101781.33;107448;1255;97829;-60
2023/08/14 08:37:26;;;;;;;8.90;2.20;;;;;;;25.87;40.76;101779.59;107468;1255;98440;-59
2023/08/14 08:39:54;;;;;;;11.10;2.20;;;;;;;26.05;40.84;101783.34;107476;1256;113109;-59
2023/08/14 08:42:22;;;;;;;8.80;2.10;;;;;;;26.28;39.02;101777.38;107488;1254;109472;-61
2023/08/14 08:44:53;;;;;;;8.80;2.50;;;;;;;26.50;38.63;101781.42;107517;1255;108134;-60
2023/08/14 08:47:26;;;;;;;9.10;2.70;;;;;;;26.72;38.34;101778.20;107460;1254;97842;-59
2023/08/14 08:49:55;;;;;;;;;;;;;;;26.96;36.40;101771.13;107479;1254;97804;-59
2023/08/14 08:52:24;;;;;;;7.50;1.80;;;;;;;27.15;34.77;101772.80;107444;1252;112620;-59
2023/08/14 08:54:54;;;;;;;4.00;2.00;;;;;;;27.35;34.54;101769.83;107527;1253;108639;-61
2023/08/14 08:57:22;;;;;;;7.20;2.90;;;;;;;27.57;34.00;101770.19;107554;1256;108463;-60
2023/08/14 08:59:52;;;;;;;13.20;2.20;;;;;;;27.77;34.85;101769.89;107566;1251;97838;-62
2023/08/14 09:02:20;;;;;;;5.40;2.00;;;;;;;27.97;35.57;101763.98;107511;1254;97697;-60
2023/08/14 09:04:49;;;;;;;6.40;2.80;;;;;;;28.19;33.64;101767.02;107541;1254;110685;-59
2023/08/14 09:07:18;;;;;;;9.10;2.40;;;;;;;28.39;32.83;101766.55;107658;1251;109222;-62
2023/08/14 09:09:47;;;;;;;5.90;2.10;;;;;;;28.56;33.39;101764.22;107541;1256;108146;-60
2023/08/14 09:12:15;;;;;;;7.90;2.10;;;;;;;28.74;32.91;101767.23;107521;1256;97844;-61
2023/08/14 09:14:59;;;;;;;7.40;2.70;;;;;;;28.95;32.56;101763.27;107550;1254;97815;-59
2023/08/14 09:17:27;;;;;;;12.40;2.00;;;;;;;29.22;31.46;101758.91;107509;1256;112004;-61
2023/08/14 09:19:55;;;;;;;4.60;1.80;;;;;;;29.45;31.59;101756.52;107536;1252;110386;-61
2023/08/14 09:22:27;;;;;;;3.10;1.80;;;;;;;29.70;31.26;101761.28;107453;1254;107999;-60
2023/08/14 09:24:57;;;;;;;3.50;2.50;;;;;;;29.97;30.58;101754.27;107523;1254;98508;-60
2023/08/14 09:27:26;;;;;;;3.20;2.00;;;;;;;30.20;29.65;101756.95;107583;1251;98383;-59
2023/08/14 09:29:55;;;;;;;7.60;2.40;;;;;;;30.51;30.13;101754.36;107528;1254;112375;-59
2023/08/14 09:32:24;;;;;;;7.70;2.30;;;;;;;30.95;29.48;101755.34;107509;1254;109311;-61
2023/08/14 09:35:00;;;;;;;8.80;2.00;;;;;;;31.42;28.60;101751.48;107617;1251;106701;-59
2023/08/14 09:37:29;;;;;;;7.10;2.00;;;;;;;31.96;28.15;101750.09;107543;1253;97906;-59
2023/08/14 09:40:15;;;;;;;5.00;2.10;;;;;;;32.55;27.60;101750.13;107561;1256;97713;-59
2023/08/14 09:42:46;;;;;;;4.80;1.70;;;;;;;33.26;26.19;101744.84;107467;1251;112889;-61
2023/08/14 09:45:17;;;;;;;6.60;1.90;;;;;;;33.81;24.79;101744.35;107500;1255;110763;-59
2023/08/14 09:47:46;;;;;;;4.30;1.60;;;;;;;34.31;25.30;101738.59;107182;1250;417164;-59
2023/08/14 09:50:21;;;;;;;5.90;1.70;;;;;;;35.01;24.81;101738.55;107506;1257;97821;-59
2023/08/14 09:52:49;;;;;;;5.20;1.80;;;;;;;35.53;23.77;101735.74;107434;1256;98360;-59
2023/08/14 09:55:17;;;;;;;12.70;2.10;;;;;;;35.98;22.83;101736.96;107455;1251;110811;-61
2023/08/14 09:57:47;;;;;;;9.50;1.60;;;;;;;36.32;22.67;101734.80;107534;1254;108874;-60
2023/08/14 10:00:16;;;;;;;4.60;1.80;;;;;;;36.84;22.74;101731.30;107572;1251;107066;-60
2023/08/14 10:02:47;;;;;;;8.40;1.80;;;;;;;37.35;22.44;101730.56;107553;1256;97837;-60
2023/08/14 10:05:18;;;;;;;3.30;1.60;;;;;;;37.89;22.06;101729.00;107525;1251;97824;-61
2023/08/14 10:07:49;;;;;;;11.20;1.80;;;;;;;38.36;21.28;101731.06;107589;1251;111238;-62
2023/08/14 10:10:19;;;;;;;8.10;1.80;;;;;;;38.92;21.23;101727.92;107537;1255;108708;-60
2023/08/14 10:12:58;;;;;;;6.20;1.90;;;;;;;39.37;20.28;101727.30;107403;1254;108233;-61
2023/08/14 10:15:39;;;;;;;4.30;1.70;;;;;;;39.61;19.64;101729.72;107474;1254;97842;-62
2023/08/14 10:18:15;;;;;;;4.10;1.60;;;;;;;39.64;19.83;101723.88;107516;1251;97938;-59
2023/08/14 10:20:46;;;;;;;3.40;1.60;;;;;;;40.00;19.64;101715.90;107553;1252;111359;-61
2023/08/14 10:23:17;;;;;;;4.30;1.40;;;;;;;40.29;18.53;101714.77;107560;1256;109970;-62
2023/08/14 10:25:50;;;;;;;7.10;1.80;;;;;;;40.54;18.25;101715.56;107484;1256;107589;-61
2023/08/14 10:28:19;;;;;;;9.80;2.10;;;;;;;40.87;18.69;101711.16;107460;1256;97799;-62
2023/08/14 10:30:48;;;;;;;7.00;1.80;;;;;;;41.25;18.26;101708.23;107462;1254;97838;-60
2023/08/14 10:33:18;;;;;;;3.60;1.50;;;;;;;41.48;17.65;101707.27;107495;1252;112157;-60
2023/08/14 10:35:49;;;;;;;5.50;1.30;;;;;;;41.63;16.76;101704.11;107510;1251;109259;-63
2023/08/14 10:38:19;;;;;;;13.20;2.00;;;;;;;41.70;17.28;101703.40;107574;1254;109011;-63
2023/08/14 10:41:04;;;;;;;3.60;1.60;;;;;;;41.94;17.24;101697.45;107491;1252;97834;-63
2023/08/14 10:43:32;;;;;;;4.50;1.30;;;;;;;42.27;16.89;101698.55;107469;1251;98442;-63
2023/08/14 10:46:13;;;;;;;2.90;1.40;;;;;;;42.47;16.98;101692.61;107472;1254;112531;-61
2023/08/14 10:48:43;;;;;;;7.20;2.20;;;;;;;42.72;16.75;101694.01;107483;1255;110212;-62
2023/08/14 10:51:16;;;;;;;7.70;1.70;;;;;;;42.99;16.39;101691.64;107469;1255;107518;-62
2023/08/14 10:53:45;;;;;;;5.60;2.30;;;;;;;43.27;15.75;101690.11;107451;1253;97703;-62
2023/08/14 10:56:13;;;;;;;7.40;1.80;;;;;;;43.51;15.52;101685.38;107479;1256;98402;-63
2023/08/14 10:58:50;;;;;;;7.40;1.90;;;;;;;43.41;15.73;101681.16;107479;1257;111134;-62
2023/08/14 11:01:18;;;;;;;4.30;1.60;;;;;;;43.36;15.09;101677.65;107564;1251;109271;-62
2023/08/14 11:04:05;;;;;;;5.70;1.90;;;;;;;43.51;15.25;101676.09;107465;1256;108457;-63
2023/08/14 11:06:58;;;;;;;4.70;2.10;;;;;;;43.78;15.22;101670.95;107523;1254;97816;-61
2023/08/14 11:09:31;;;;;;;5.20;1.60;;;;;;;43.91;14.63;101665.42;107539;1254;98386;-63
2023/08/14 11:12:08;;;;;;;3.10;1.70;;;;;;;43.97;14.57;101659.58;107522;1254;111278;-62
2023/08/14 11:14:41;;;;;;;11.00;1.90;;;;;;;44.16;14.25;101659.12;107537;1255;109042;-61
2023/08/14 11:17:10;;;;;;;7.20;1.50;;;;;;;44.25;14.21;101654.99;107486;1254;107190;-65
2023/08/14 11:19:38;;;;;;;3.10;2.10;;;;;;;44.41;14.40;101653.02;107450;1251;97809;-63
2023/08/14 11:22:07;;;;;;;6.70;2.50;;;;;;;44.39;14.12;101649.28;107509;1255;97704;-62